sensor_id;sensor_type;location;lat;lon;timestamp;P1;durP1;ratioP1;P2;durP2;ratioP2
55601;SDS011;59921;51.332;12.410;2022-08-24T00:01:01;3.25;;;1.98;;
55601;SDS011;59921;51.332;12.410;2022-08-24T00:03:31;2.92;;;1.80;;
55601;SDS011;59921;51.332;12.410;2022-08-24T00:05:57;2.35;;;1.77;;
55601;SDS011;59921;51.332;12.410;2022-08-24T00:08:24;3.10;;;2.10;;
55601;SDS011;59921;51.332;12.410;2022-08-24T00:10:50;3.15;;;1.80;;
55601;SDS011;59921;51.332;12.410;2022-08-24T00:13:16;3.47;;;1.83;;
55601;SDS011;59921;51.332;12.410;2022-08-24T00:15:42;2.60;;;1.63;;
55601;SDS011;59921;51.332;12.410;2022-08-24T00:18:08;2.25;;;1.75;;
55601;SDS011;59921;51.332;12.410;2022-08-24T00:20:33;3.05;;;1.88;;
55601;SDS011;59921;51.332;12.410;2022-08-24T00:22:59;2.33;;;1.75;;
55601;SDS011;59921;51.332;12.410;2022-08-24T00:25:25;2.45;;;1.90;;
55601;SDS011;59921;51.332;12.410;2022-08-24T00:27:51;2.28;;;1.80;;
55601;SDS011;59921;51.332;12.410;2022-08-24T00:30:18;3.47;;;1.80;;
55601;SDS011;59921;51.332;12.410;2022-08-24T00:32:44;2.33;;;1.77;;
55601;SDS011;59921;51.332;12.410;2022-08-24T00:35:12;2.80;;;1.90;;
55601;SDS011;59921;51.332;12.410;2022-08-24T00:37:42;3.40;;;2.25;;
55601;SDS011;59921;51.332;12.410;2022-08-24T00:40:11;3.15;;;1.95;;
55601;SDS011;59921;51.332;12.410;2022-08-24T00:42:40;3.50;;;1.80;;
55601;SDS011;59921;51.332;12.410;2022-08-24T00:45:06;2.45;;;1.77;;
55601;SDS011;59921;51.332;12.410;2022-08-24T00:47:57;3.25;;;1.88;;
55601;SDS011;59921;51.332;12.410;2022-08-24T00:50:27;3.17;;;1.88;;
55601;SDS011;59921;51.332;12.410;2022-08-24T00:56:02;2.90;;;1.90;;
55601;SDS011;59921;51.332;12.410;2022-08-24T00:58:33;3.05;;;2.15;;
55601;SDS011;59921;51.332;12.410;2022-08-24T01:01:06;3.08;;;1.80;;
55601;SDS011;59921;51.332;12.410;2022-08-24T01:03:33;2.63;;;1.70;;
55601;SDS011;59921;51.332;12.410;2022-08-24T01:06:01;3.28;;;2.05;;
55601;SDS011;59921;51.332;12.410;2022-08-24T01:08:27;3.35;;;2.10;;
55601;SDS011;59921;51.332;12.410;2022-08-24T01:11:04;2.65;;;2.08;;
55601;SDS011;59921;51.332;12.410;2022-08-24T01:13:36;2.53;;;1.83;;
55601;SDS011;59921;51.332;12.410;2022-08-24T01:16:02;3.13;;;1.85;;
55601;SDS011;59921;51.332;12.410;2022-08-24T01:18:29;2.58;;;1.85;;
55601;SDS011;59921;51.332;12.410;2022-08-24T01:26:33;3.42;;;2.20;;
55601;SDS011;59921;51.332;12.410;2022-08-24T01:29:05;2.25;;;1.60;;
55601;SDS011;59921;51.332;12.410;2022-08-24T01:31:32;3.20;;;2.05;;
55601;SDS011;59921;51.332;12.410;2022-08-24T01:33:58;2.83;;;1.85;;
55601;SDS011;59921;51.332;12.410;2022-08-24T01:39:21;3.30;;;1.95;;
55601;SDS011;59921;51.332;12.410;2022-08-24T01:41:55;2.38;;;1.77;;
55601;SDS011;59921;51.332;12.410;2022-08-24T01:44:21;2.60;;;1.95;;
55601;SDS011;59921;51.332;12.410;2022-08-24T01:46:50;3.08;;;1.80;;
55601;SDS011;59921;51.332;12.410;2022-08-24T01:49:18;2.30;;;1.58;;
55601;SDS011;59921;51.332;12.410;2022-08-24T01:51:45;2.95;;;1.95;;
55601;SDS011;59921;51.332;12.410;2022-08-24T01:54:12;2.58;;;1.77;;
55601;SDS011;59921;51.332;12.410;2022-08-24T01:56:39;3.53;;;2.03;;
55601;SDS011;59921;51.332;12.410;2022-08-24T01:59:05;2.97;;;2.20;;
55601;SDS011;59921;51.332;12.410;2022-08-24T02:01:34;2.67;;;1.95;;
55601;SDS011;59921;51.332;12.410;2022-08-24T02:04:03;3.13;;;2.08;;
55601;SDS011;59921;51.332;12.410;2022-08-24T02:06:30;4.40;;;2.20;;
55601;SDS011;59921;51.332;12.410;2022-08-24T02:08:57;3.03;;;2.10;;
55601;SDS011;59921;51.332;12.410;2022-08-24T02:11:22;3.35;;;1.92;;
55601;SDS011;59921;51.332;12.410;2022-08-24T02:13:48;2.78;;;1.83;;
55601;SDS011;59921;51.332;12.410;2022-08-24T02:16:13;3.13;;;2.15;;
55601;SDS011;59921;51.332;12.410;2022-08-24T02:18:39;3.13;;;1.90;;
55601;SDS011;59921;51.332;12.410;2022-08-24T02:21:06;3.47;;;1.80;;
55601;SDS011;59921;51.332;12.410;2022-08-24T02:23:33;4.15;;;2.10;;
55601;SDS011;59921;51.332;12.410;2022-08-24T02:25:59;3.13;;;2.08;;
55601;SDS011;59921;51.332;12.410;2022-08-24T02:28:25;2.45;;;1.95;;
55601;SDS011;59921;51.332;12.410;2022-08-24T02:30:50;2.50;;;1.70;;
55601;SDS011;59921;51.332;12.410;2022-08-24T02:33:17;3.05;;;1.80;;
55601;SDS011;59921;51.332;12.410;2022-08-24T02:35:43;2.28;;;1.80;;
55601;SDS011;59921;51.332;12.410;2022-08-24T02:38:08;2.72;;;1.73;;
55601;SDS011;59921;51.332;12.410;2022-08-24T02:40:34;2.08;;;1.60;;
55601;SDS011;59921;51.332;12.410;2022-08-24T02:43:01;2.70;;;1.90;;
55601;SDS011;59921;51.332;12.410;2022-08-24T02:45:27;3.03;;;2.03;;
55601;SDS011;59921;51.332;12.410;2022-08-24T02:47:53;1.98;;;1.50;;
55601;SDS011;59921;51.332;12.410;2022-08-24T02:50:18;2.45;;;1.80;;
55601;SDS011;59921;51.332;12.410;2022-08-24T02:52:44;3.05;;;2.00;;
55601;SDS011;59921;51.332;12.410;2022-08-24T02:55:12;3.17;;;1.60;;
55601;SDS011;59921;51.332;12.410;2022-08-24T02:57:41;2.08;;;1.73;;
55601;SDS011;59921;51.332;12.410;2022-08-24T03:00:08;2.80;;;1.77;;
55601;SDS011;59921;51.332;12.410;2022-08-24T03:02:36;3.22;;;2.00;;
55601;SDS011;59921;51.332;12.410;2022-08-24T03:05:02;3.40;;;1.90;;
55601;SDS011;59921;51.332;12.410;2022-08-24T03:07:28;2.72;;;1.95;;
55601;SDS011;59921;51.332;12.410;2022-08-24T03:09:53;2.85;;;1.95;;
55601;SDS011;59921;51.332;12.410;2022-08-24T03:12:19;2.50;;;2.20;;
55601;SDS011;59921;51.332;12.410;2022-08-24T03:14:45;2.95;;;2.00;;
55601;SDS011;59921;51.332;12.410;2022-08-24T03:17:11;2.28;;;1.70;;
55601;SDS011;59921;51.332;12.410;2022-08-24T03:19:37;2.88;;;1.95;;
55601;SDS011;59921;51.332;12.410;2022-08-24T03:22:03;2.53;;;1.80;;
55601;SDS011;59921;51.332;12.410;2022-08-24T03:24:28;2.15;;;1.75;;
55601;SDS011;59921;51.332;12.410;2022-08-24T03:26:54;3.08;;;1.98;;
55601;SDS011;59921;51.332;12.410;2022-08-24T03:29:19;3.50;;;2.15;;
55601;SDS011;59921;51.332;12.410;2022-08-24T03:31:45;3.10;;;1.95;;
55601;SDS011;59921;51.332;12.410;2022-08-24T03:34:12;1.90;;;1.70;;
55601;SDS011;59921;51.332;12.410;2022-08-24T03:36:39;3.17;;;2.00;;
55601;SDS011;59921;51.332;12.410;2022-08-24T03:39:06;2.65;;;1.90;;
55601;SDS011;59921;51.332;12.410;2022-08-24T03:41:31;3.53;;;2.10;;
55601;SDS011;59921;51.332;12.410;2022-08-24T03:43:57;2.50;;;1.90;;
55601;SDS011;59921;51.332;12.410;2022-08-24T03:46:24;2.92;;;2.00;;
55601;SDS011;59921;51.332;12.410;2022-08-24T03:48:53;3.03;;;1.90;;
55601;SDS011;59921;51.332;12.410;2022-08-24T03:51:21;3.10;;;2.13;;
55601;SDS011;59921;51.332;12.410;2022-08-24T03:53:49;2.78;;;1.77;;
55601;SDS011;59921;51.332;12.410;2022-08-24T03:56:15;2.90;;;2.00;;
55601;SDS011;59921;51.332;12.410;2022-08-24T03:58:42;2.83;;;1.90;;
55601;SDS011;59921;51.332;12.410;2022-08-24T04:01:09;3.53;;;1.90;;
55601;SDS011;59921;51.332;12.410;2022-08-24T04:03:39;2.33;;;1.90;;
55601;SDS011;59921;51.332;12.410;2022-08-24T04:06:07;2.83;;;1.88;;
55601;SDS011;59921;51.332;12.410;2022-08-24T04:08:34;2.92;;;2.08;;
55601;SDS011;59921;51.332;12.410;2022-08-24T04:11:00;3.80;;;1.92;;
55601;SDS011;59921;51.332;12.410;2022-08-24T04:13:27;2.38;;;1.85;;
55601;SDS011;59921;51.332;12.410;2022-08-24T04:16:18;3.97;;;2.15;;
55601;SDS011;59921;51.332;12.410;2022-08-24T04:18:43;3.25;;;2.00;;
55601;SDS011;59921;51.332;12.410;2022-08-24T04:21:16;2.45;;;1.88;;
55601;SDS011;59921;51.332;12.410;2022-08-24T04:23:44;4.32;;;2.13;;
55601;SDS011;59921;51.332;12.410;2022-08-24T04:26:10;2.50;;;1.85;;
55601;SDS011;59921;51.332;12.410;2022-08-24T04:28:36;2.25;;;1.75;;
55601;SDS011;59921;51.332;12.410;2022-08-24T04:31:03;3.67;;;2.13;;
55601;SDS011;59921;51.332;12.410;2022-08-24T04:33:29;3.40;;;2.10;;
55601;SDS011;59921;51.332;12.410;2022-08-24T04:35:55;2.95;;;1.85;;
55601;SDS011;59921;51.332;12.410;2022-08-24T04:38:21;4.72;;;2.33;;
55601;SDS011;59921;51.332;12.410;2022-08-24T04:40:47;3.10;;;2.03;;
55601;SDS011;59921;51.332;12.410;2022-08-24T04:43:13;5.00;;;2.17;;
55601;SDS011;59921;51.332;12.410;2022-08-24T04:45:40;3.50;;;2.25;;
55601;SDS011;59921;51.332;12.410;2022-08-24T04:48:07;2.55;;;2.00;;
55601;SDS011;59921;51.332;12.410;2022-08-24T04:50:34;3.22;;;2.30;;
55601;SDS011;59921;51.332;12.410;2022-08-24T04:53:01;3.83;;;1.98;;
55601;SDS011;59921;51.332;12.410;2022-08-24T04:55:29;3.45;;;2.22;;
55601;SDS011;59921;51.332;12.410;2022-08-24T04:57:55;3.47;;;2.10;;
55601;SDS011;59921;51.332;12.410;2022-08-24T05:00:20;4.32;;;2.15;;
55601;SDS011;59921;51.332;12.410;2022-08-24T05:02:47;2.88;;;1.90;;
55601;SDS011;59921;51.332;12.410;2022-08-24T05:05:13;3.10;;;2.22;;
55601;SDS011;59921;51.332;12.410;2022-08-24T05:07:39;4.82;;;2.50;;
55601;SDS011;59921;51.332;12.410;2022-08-24T05:10:05;4.57;;;2.40;;
55601;SDS011;59921;51.332;12.410;2022-08-24T05:12:32;4.13;;;2.33;;
55601;SDS011;59921;51.332;12.410;2022-08-24T05:14:57;3.83;;;2.10;;
55601;SDS011;59921;51.332;12.410;2022-08-24T05:17:23;4.05;;;2.38;;
55601;SDS011;59921;51.332;12.410;2022-08-24T05:19:50;3.72;;;2.45;;
55601;SDS011;59921;51.332;12.410;2022-08-24T05:22:16;4.80;;;2.47;;
55601;SDS011;59921;51.332;12.410;2022-08-24T05:24:41;3.75;;;2.47;;
55601;SDS011;59921;51.332;12.410;2022-08-24T05:27:07;5.45;;;2.25;;
55601;SDS011;59921;51.332;12.410;2022-08-24T05:29:33;4.65;;;2.60;;
55601;SDS011;59921;51.332;12.410;2022-08-24T05:31:59;3.90;;;2.40;;
55601;SDS011;59921;51.332;12.410;2022-08-24T05:34:25;3.95;;;2.30;;
55601;SDS011;59921;51.332;12.410;2022-08-24T05:36:50;4.82;;;2.72;;
55601;SDS011;59921;51.332;12.410;2022-08-24T05:39:16;3.88;;;2.25;;
55601;SDS011;59921;51.332;12.410;2022-08-24T05:41:42;4.60;;;2.40;;
55601;SDS011;59921;51.332;12.410;2022-08-24T05:44:09;3.38;;;2.10;;
55601;SDS011;59921;51.332;12.410;2022-08-24T05:46:36;3.78;;;2.40;;
55601;SDS011;59921;51.332;12.410;2022-08-24T05:49:02;3.30;;;2.33;;
55601;SDS011;59921;51.332;12.410;2022-08-24T05:51:28;2.90;;;2.03;;
55601;SDS011;59921;51.332;12.410;2022-08-24T05:53:54;3.15;;;2.35;;
55601;SDS011;59921;51.332;12.410;2022-08-24T05:56:20;3.13;;;2.35;;
55601;SDS011;59921;51.332;12.410;2022-08-24T05:58:46;3.58;;;2.40;;
55601;SDS011;59921;51.332;12.410;2022-08-24T06:01:14;3.55;;;2.30;;
55601;SDS011;59921;51.332;12.410;2022-08-24T06:03:42;3.85;;;2.45;;
55601;SDS011;59921;51.332;12.410;2022-08-24T06:06:09;2.97;;;1.92;;
55601;SDS011;59921;51.332;12.410;2022-08-24T06:08:35;3.80;;;2.45;;
55601;SDS011;59921;51.332;12.410;2022-08-24T06:11:03;3.22;;;2.03;;
55601;SDS011;59921;51.332;12.410;2022-08-24T06:13:30;3.67;;;2.17;;
55601;SDS011;59921;51.332;12.410;2022-08-24T06:16:02;5.15;;;2.60;;
55601;SDS011;59921;51.332;12.410;2022-08-24T06:18:30;3.20;;;2.30;;
55601;SDS011;59921;51.332;12.410;2022-08-24T06:20:56;2.97;;;2.13;;
55601;SDS011;59921;51.332;12.410;2022-08-24T06:23:22;4.15;;;2.25;;
55601;SDS011;59921;51.332;12.410;2022-08-24T06:25:48;3.22;;;2.40;;
55601;SDS011;59921;51.332;12.410;2022-08-24T06:28:32;3.92;;;2.28;;
55601;SDS011;59921;51.332;12.410;2022-08-24T06:31:04;3.72;;;2.30;;
55601;SDS011;59921;51.332;12.410;2022-08-24T06:33:34;3.33;;;2.30;;
55601;SDS011;59921;51.332;12.410;2022-08-24T06:36:00;4.05;;;2.10;;
55601;SDS011;59921;51.332;12.410;2022-08-24T06:38:25;3.53;;;2.13;;
55601;SDS011;59921;51.332;12.410;2022-08-24T06:40:51;4.07;;;2.20;;
55601;SDS011;59921;51.332;12.410;2022-08-24T06:43:17;3.30;;;2.25;;
55601;SDS011;59921;51.332;12.410;2022-08-24T06:45:43;3.88;;;2.30;;
55601;SDS011;59921;51.332;12.410;2022-08-24T06:48:09;3.22;;;2.20;;
55601;SDS011;59921;51.332;12.410;2022-08-24T06:50:35;4.00;;;2.33;;
55601;SDS011;59921;51.332;12.410;2022-08-24T06:53:01;3.80;;;2.35;;
55601;SDS011;59921;51.332;12.410;2022-08-24T06:55:27;3.42;;;2.20;;
55601;SDS011;59921;51.332;12.410;2022-08-24T06:57:53;3.25;;;2.15;;
55601;SDS011;59921;51.332;12.410;2022-08-24T07:00:20;3.58;;;2.30;;
55601;SDS011;59921;51.332;12.410;2022-08-24T07:02:46;3.28;;;2.03;;
55601;SDS011;59921;51.332;12.410;2022-08-24T07:05:12;2.92;;;2.00;;
55601;SDS011;59921;51.332;12.410;2022-08-24T07:07:38;4.10;;;2.40;;
55601;SDS011;59921;51.332;12.410;2022-08-24T07:10:05;3.00;;;2.17;;
55601;SDS011;59921;51.332;12.410;2022-08-24T07:12:33;2.65;;;2.10;;
55601;SDS011;59921;51.332;12.410;2022-08-24T07:15:01;4.85;;;2.22;;
55601;SDS011;59921;51.332;12.410;2022-08-24T07:17:28;3.42;;;2.00;;
55601;SDS011;59921;51.332;12.410;2022-08-24T07:19:54;3.13;;;2.20;;
55601;SDS011;59921;51.332;12.410;2022-08-24T07:22:19;2.78;;;1.95;;
55601;SDS011;59921;51.332;12.410;2022-08-24T07:24:45;3.88;;;2.30;;
55601;SDS011;59921;51.332;12.410;2022-08-24T07:27:11;4.88;;;2.08;;
55601;SDS011;59921;51.332;12.410;2022-08-24T07:29:38;3.05;;;2.20;;
55601;SDS011;59921;51.332;12.410;2022-08-24T07:32:05;4.00;;;2.25;;
55601;SDS011;59921;51.332;12.410;2022-08-24T07:34:34;3.78;;;2.00;;
55601;SDS011;59921;51.332;12.410;2022-08-24T07:37:01;2.47;;;1.70;;
55601;SDS011;59921;51.332;12.410;2022-08-24T07:39:28;3.00;;;2.03;;
55601;SDS011;59921;51.332;12.410;2022-08-24T07:41:54;2.58;;;1.70;;
55601;SDS011;59921;51.332;12.410;2022-08-24T07:44:21;3.58;;;2.30;;
55601;SDS011;59921;51.332;12.410;2022-08-24T07:46:47;3.22;;;2.30;;
55601;SDS011;59921;51.332;12.410;2022-08-24T07:49:13;3.10;;;2.08;;
55601;SDS011;59921;51.332;12.410;2022-08-24T07:51:40;4.05;;;2.28;;
55601;SDS011;59921;51.332;12.410;2022-08-24T07:54:05;2.35;;;2.00;;
55601;SDS011;59921;51.332;12.410;2022-08-24T07:56:32;2.97;;;1.98;;
55601;SDS011;59921;51.332;12.410;2022-08-24T07:58:57;2.78;;;2.05;;
55601;SDS011;59921;51.332;12.410;2022-08-24T08:01:23;2.72;;;2.13;;
55601;SDS011;59921;51.332;12.410;2022-08-24T08:03:49;3.38;;;2.10;;
55601;SDS011;59921;51.332;12.410;2022-08-24T08:06:16;3.08;;;2.00;;
55601;SDS011;59921;51.332;12.410;2022-08-24T08:08:43;3.10;;;2.00;;
55601;SDS011;59921;51.332;12.410;2022-08-24T08:11:09;3.70;;;2.10;;
55601;SDS011;59921;51.332;12.410;2022-08-24T08:13:35;3.00;;;1.95;;
55601;SDS011;59921;51.332;12.410;2022-08-24T08:16:02;3.38;;;1.90;;
55601;SDS011;59921;51.332;12.410;2022-08-24T08:18:29;2.75;;;2.00;;
55601;SDS011;59921;51.332;12.410;2022-08-24T08:20:56;3.35;;;2.03;;
55601;SDS011;59921;51.332;12.410;2022-08-24T08:23:22;3.03;;;2.10;;
55601;SDS011;59921;51.332;12.410;2022-08-24T08:26:07;3.10;;;2.10;;
55601;SDS011;59921;51.332;12.410;2022-08-24T08:28:37;2.65;;;1.95;;
55601;SDS011;59921;51.332;12.410;2022-08-24T08:31:03;3.30;;;2.03;;
55601;SDS011;59921;51.332;12.410;2022-08-24T08:33:30;2.50;;;2.00;;
55601;SDS011;59921;51.332;12.410;2022-08-24T08:36:06;2.67;;;2.17;;
55601;SDS011;59921;51.332;12.410;2022-08-24T08:38:34;2.60;;;1.95;;
55601;SDS011;59921;51.332;12.410;2022-08-24T09:00:21;2.60;;;1.80;;
55601;SDS011;59921;51.332;12.410;2022-08-24T09:10:55;2.30;;;1.80;;
55601;SDS011;59921;51.332;12.410;2022-08-24T09:16:32;2.75;;;2.03;;
55601;SDS011;59921;51.332;12.410;2022-08-24T09:22:12;3.53;;;1.90;;
55601;SDS011;59921;51.332;12.410;2022-08-24T09:27:25;2.63;;;1.90;;
55601;SDS011;59921;51.332;12.410;2022-08-24T09:30:07;2.25;;;1.80;;
55601;SDS011;59921;51.332;12.410;2022-08-24T09:32:35;3.40;;;1.92;;
55601;SDS011;59921;51.332;12.410;2022-08-24T09:35:11;2.30;;;1.70;;
55601;SDS011;59921;51.332;12.410;2022-08-24T09:40:28;2.80;;;2.00;;
55601;SDS011;59921;51.332;12.410;2022-08-24T09:50:59;2.40;;;1.88;;
55601;SDS011;59921;51.332;12.410;2022-08-24T10:08:11;2.75;;;1.80;;
55601;SDS011;59921;51.332;12.410;2022-08-24T10:10:51;2.78;;;1.80;;
55601;SDS011;59921;51.332;12.410;2022-08-24T10:16:09;2.05;;;1.67;;
55601;SDS011;59921;51.332;12.410;2022-08-24T10:18:53;2.28;;;1.60;;
55601;SDS011;59921;51.332;12.410;2022-08-24T10:29:41;2.67;;;1.90;;
55601;SDS011;59921;51.332;12.410;2022-08-24T10:35:04;3.10;;;1.80;;
55601;SDS011;59921;51.332;12.410;2022-08-24T10:46:34;3.08;;;2.05;;
55601;SDS011;59921;51.332;12.410;2022-08-24T10:54:47;2.38;;;1.85;;
55601;SDS011;59921;51.332;12.410;2022-08-24T10:59:56;2.20;;;1.70;;
55601;SDS011;59921;51.332;12.410;2022-08-24T11:02:29;3.40;;;2.00;;
55601;SDS011;59921;51.332;12.410;2022-08-24T11:05:01;3.45;;;1.67;;
55601;SDS011;59921;51.332;12.410;2022-08-24T11:07:32;2.08;;;1.70;;
55601;SDS011;59921;51.332;12.410;2022-08-24T11:09:59;2.33;;;1.70;;
55601;SDS011;59921;51.332;12.410;2022-08-24T11:12:34;2.67;;;1.63;;
55601;SDS011;59921;51.332;12.410;2022-08-24T11:18:07;2.28;;;1.80;;
55601;SDS011;59921;51.332;12.410;2022-08-24T11:20:33;2.42;;;1.88;;
55601;SDS011;59921;51.332;12.410;2022-08-24T11:23:08;2.15;;;1.70;;
55601;SDS011;59921;51.332;12.410;2022-08-24T11:25:41;2.72;;;1.90;;
55601;SDS011;59921;51.332;12.410;2022-08-24T11:28:31;2.22;;;1.80;;
55601;SDS011;59921;51.332;12.410;2022-08-24T11:31:08;3.55;;;1.95;;
55601;SDS011;59921;51.332;12.410;2022-08-24T11:36:14;3.25;;;1.80;;
55601;SDS011;59921;51.332;12.410;2022-08-24T11:38:41;3.33;;;1.98;;
55601;SDS011;59921;51.332;12.410;2022-08-24T11:41:21;2.58;;;1.60;;
55601;SDS011;59921;51.332;12.410;2022-08-24T11:44:01;3.15;;;1.65;;
55601;SDS011;59921;51.332;12.410;2022-08-24T11:52:51;2.55;;;1.90;;
55601;SDS011;59921;51.332;12.410;2022-08-24T11:55:11;2.50;;;1.85;;
55601;SDS011;59921;51.332;12.410;2022-08-24T11:58:02;4.35;;;2.00;;
55601;SDS011;59921;51.332;12.410;2022-08-24T12:00:42;2.93;;;1.77;;
55601;SDS011;59921;51.332;12.410;2022-08-24T12:04:00;3.22;;;1.80;;
55601;SDS011;59921;51.332;12.410;2022-08-24T12:08:56;3.55;;;1.77;;
55601;SDS011;59921;51.332;12.410;2022-08-24T12:11:55;3.13;;;2.00;;
55601;SDS011;59921;51.332;12.410;2022-08-24T12:14:36;2.92;;;1.88;;
55601;SDS011;59921;51.332;12.410;2022-08-24T12:17:13;3.25;;;1.98;;
55601;SDS011;59921;51.332;12.410;2022-08-24T12:19:49;2.25;;;1.80;;
55601;SDS011;59921;51.332;12.410;2022-08-24T12:22:18;2.42;;;1.60;;
55601;SDS011;59921;51.332;12.410;2022-08-24T12:24:50;2.75;;;1.92;;
55601;SDS011;59921;51.332;12.410;2022-08-24T12:27:37;3.75;;;1.80;;
55601;SDS011;59921;51.332;12.410;2022-08-24T12:30:07;2.60;;;1.85;;
55601;SDS011;59921;51.332;12.410;2022-08-24T12:32:47;2.88;;;1.83;;
55601;SDS011;59921;51.332;12.410;2022-08-24T12:35:25;2.80;;;1.75;;
55601;SDS011;59921;51.332;12.410;2022-08-24T12:38:02;1.77;;;1.40;;
55601;SDS011;59921;51.332;12.410;2022-08-24T12:45:36;2.20;;;1.60;;
55601;SDS011;59921;51.332;12.410;2022-08-24T12:56:39;2.55;;;2.00;;
55601;SDS011;59921;51.332;12.410;2022-08-24T12:59:46;3.20;;;1.77;;
55601;SDS011;59921;51.332;12.410;2022-08-24T13:17:59;3.80;;;1.80;;
55601;SDS011;59921;51.332;12.410;2022-08-24T13:23:16;1.95;;;1.63;;
55601;SDS011;59921;51.332;12.410;2022-08-24T13:36:08;1.83;;;1.60;;
55601;SDS011;59921;51.332;12.410;2022-08-24T13:42:17;3.97;;;2.00;;
55601;SDS011;59921;51.332;12.410;2022-08-24T13:55:53;2.38;;;1.40;;
55601;SDS011;59921;51.332;12.410;2022-08-24T13:58:41;2.63;;;1.75;;
55601;SDS011;59921;51.332;12.410;2022-08-24T14:01:23;2.33;;;1.50;;
55601;SDS011;59921;51.332;12.410;2022-08-24T14:09:44;2.03;;;1.70;;
55601;SDS011;59921;51.332;12.410;2022-08-24T14:15:01;2.22;;;1.60;;
55601;SDS011;59921;51.332;12.410;2022-08-24T14:20:29;3.03;;;1.77;;
55601;SDS011;59921;51.332;12.410;2022-08-24T14:26:58;2.15;;;1.60;;
55601;SDS011;59921;51.332;12.410;2022-08-24T14:29:13;2.70;;;1.55;;
55601;SDS011;59921;51.332;12.410;2022-08-24T14:37:01;1.98;;;1.48;;
55601;SDS011;59921;51.332;12.410;2022-08-24T14:39:38;2.40;;;1.48;;
55601;SDS011;59921;51.332;12.410;2022-08-24T14:50:21;3.78;;;1.70;;
55601;SDS011;59921;51.332;12.410;2022-08-24T15:01:47;2.75;;;1.60;;
55601;SDS011;59921;51.332;12.410;2022-08-24T15:06:58;2.10;;;1.50;;
55601;SDS011;59921;51.332;12.410;2022-08-24T15:09:45;2.75;;;1.50;;
55601;SDS011;59921;51.332;12.410;2022-08-24T15:12:13;2.35;;;1.33;;
55601;SDS011;59921;51.332;12.410;2022-08-24T15:14:52;2.17;;;1.38;;
55601;SDS011;59921;51.332;12.410;2022-08-24T15:17:28;1.73;;;1.30;;
55601;SDS011;59921;51.332;12.410;2022-08-24T15:20:12;2.28;;;1.70;;
55601;SDS011;59921;51.332;12.410;2022-08-24T15:25:46;1.73;;;1.40;;
55601;SDS011;59921;51.332;12.410;2022-08-24T15:31:09;1.77;;;1.48;;
55601;SDS011;59921;51.332;12.410;2022-08-24T15:33:49;1.58;;;1.23;;
55601;SDS011;59921;51.332;12.410;2022-08-24T15:36:17;1.80;;;1.30;;
55601;SDS011;59921;51.332;12.410;2022-08-24T15:38:43;2.22;;;1.38;;
55601;SDS011;59921;51.332;12.410;2022-08-24T15:41:14;1.83;;;1.50;;
55601;SDS011;59921;51.332;12.410;2022-08-24T15:43:51;2.53;;;1.50;;
55601;SDS011;59921;51.332;12.410;2022-08-24T15:46:25;2.20;;;1.48;;
55601;SDS011;59921;51.332;12.410;2022-08-24T15:49:18;1.50;;;1.30;;
55601;SDS011;59921;51.332;12.410;2022-08-24T15:51:58;1.23;;;1.05;;
55601;SDS011;59921;51.332;12.410;2022-08-24T15:54:53;2.20;;;1.50;;
55601;SDS011;59921;51.332;12.410;2022-08-24T15:59:49;1.70;;;1.40;;
55601;SDS011;59921;51.332;12.410;2022-08-24T16:02:20;2.45;;;1.30;;
55601;SDS011;59921;51.332;12.410;2022-08-24T16:13:06;2.10;;;1.40;;
55601;SDS011;59921;51.332;12.410;2022-08-24T16:18:43;2.47;;;1.33;;
55601;SDS011;59921;51.332;12.410;2022-08-24T16:34:50;1.60;;;1.23;;
55601;SDS011;59921;51.332;12.410;2022-08-24T16:37:19;2.60;;;1.50;;
55601;SDS011;59921;51.332;12.410;2022-08-24T16:39:46;1.77;;;1.30;;
55601;SDS011;59921;51.332;12.410;2022-08-24T16:42:26;2.28;;;1.40;;
55601;SDS011;59921;51.332;12.410;2022-08-24T16:44:54;2.10;;;1.30;;
55601;SDS011;59921;51.332;12.410;2022-08-24T16:47:21;2.05;;;1.40;;
55601;SDS011;59921;51.332;12.410;2022-08-24T16:49:47;2.15;;;1.30;;
55601;SDS011;59921;51.332;12.410;2022-08-24T16:52:13;1.27;;;1.15;;
55601;SDS011;59921;51.332;12.410;2022-08-24T16:54:40;1.95;;;1.40;;
55601;SDS011;59921;51.332;12.410;2022-08-24T16:57:09;2.05;;;1.50;;
55601;SDS011;59921;51.332;12.410;2022-08-24T16:59:40;2.42;;;1.30;;
55601;SDS011;59921;51.332;12.410;2022-08-24T17:02:08;1.50;;;1.30;;
55601;SDS011;59921;51.332;12.410;2022-08-24T17:04:34;2.60;;;1.45;;
55601;SDS011;59921;51.332;12.410;2022-08-24T17:07:00;1.90;;;1.45;;
55601;SDS011;59921;51.332;12.410;2022-08-24T17:09:27;2.03;;;1.40;;
55601;SDS011;59921;51.332;12.410;2022-08-24T17:11:53;2.65;;;1.30;;
55601;SDS011;59921;51.332;12.410;2022-08-24T17:14:19;1.88;;;1.27;;
55601;SDS011;59921;51.332;12.410;2022-08-24T17:16:45;2.33;;;1.40;;
55601;SDS011;59921;51.332;12.410;2022-08-24T17:19:11;2.03;;;1.42;;
55601;SDS011;59921;51.332;12.410;2022-08-24T17:21:39;2.83;;;1.40;;
55601;SDS011;59921;51.332;12.410;2022-08-24T17:24:05;1.40;;;1.20;;
55601;SDS011;59921;51.332;12.410;2022-08-24T17:26:32;1.50;;;1.27;;
55601;SDS011;59921;51.332;12.410;2022-08-24T17:28:58;2.67;;;1.65;;
55601;SDS011;59921;51.332;12.410;2022-08-24T17:31:26;3.00;;;1.95;;
55601;SDS011;59921;51.332;12.410;2022-08-24T17:33:53;2.75;;;1.55;;
55601;SDS011;59921;51.332;12.410;2022-08-24T17:36:19;2.00;;;1.70;;
55601;SDS011;59921;51.332;12.410;2022-08-24T17:38:47;2.10;;;1.67;;
55601;SDS011;59921;51.332;12.410;2022-08-24T17:41:18;4.22;;;1.65;;
55601;SDS011;59921;51.332;12.410;2022-08-24T17:43:43;1.85;;;1.63;;
55601;SDS011;59921;51.332;12.410;2022-08-24T17:46:10;2.28;;;1.58;;
55601;SDS011;59921;51.332;12.410;2022-08-24T17:48:38;2.60;;;1.73;;
55601;SDS011;59921;51.332;12.410;2022-08-24T17:51:04;2.97;;;1.50;;
55601;SDS011;59921;51.332;12.410;2022-08-24T17:53:30;1.80;;;1.40;;
55601;SDS011;59921;51.332;12.410;2022-08-24T17:55:56;2.45;;;1.40;;
55601;SDS011;59921;51.332;12.410;2022-08-24T17:58:21;1.70;;;1.50;;
55601;SDS011;59921;51.332;12.410;2022-08-24T18:00:47;2.17;;;1.63;;
55601;SDS011;59921;51.332;12.410;2022-08-24T18:03:12;3.03;;;2.03;;
55601;SDS011;59921;51.332;12.410;2022-08-24T18:05:38;2.47;;;2.05;;
55601;SDS011;59921;51.332;12.410;2022-08-24T18:08:04;3.22;;;2.13;;
55601;SDS011;59921;51.332;12.410;2022-08-24T18:10:30;3.55;;;2.15;;
55601;SDS011;59921;51.332;12.410;2022-08-24T18:12:56;3.30;;;1.98;;
55601;SDS011;59921;51.332;12.410;2022-08-24T18:15:26;2.92;;;1.80;;
55601;SDS011;59921;51.332;12.410;2022-08-24T18:17:55;2.58;;;1.83;;
55601;SDS011;59921;51.332;12.410;2022-08-24T18:20:23;2.95;;;1.95;;
55601;SDS011;59921;51.332;12.410;2022-08-24T18:22:51;2.88;;;1.75;;
55601;SDS011;59921;51.332;12.410;2022-08-24T18:25:18;2.63;;;1.95;;
55601;SDS011;59921;51.332;12.410;2022-08-24T18:27:46;3.33;;;1.95;;
55601;SDS011;59921;51.332;12.410;2022-08-24T18:30:18;2.83;;;1.98;;
55601;SDS011;59921;51.332;12.410;2022-08-24T18:32:46;4.85;;;2.00;;
55601;SDS011;59921;51.332;12.410;2022-08-24T18:35:12;3.00;;;2.00;;
55601;SDS011;59921;51.332;12.410;2022-08-24T18:37:37;2.67;;;1.80;;
55601;SDS011;59921;51.332;12.410;2022-08-24T18:40:03;3.28;;;2.15;;
55601;SDS011;59921;51.332;12.410;2022-08-24T18:42:30;3.05;;;1.98;;
55601;SDS011;59921;51.332;12.410;2022-08-24T18:44:56;2.30;;;1.70;;
55601;SDS011;59921;51.332;12.410;2022-08-24T18:47:23;3.00;;;2.10;;
55601;SDS011;59921;51.332;12.410;2022-08-24T18:49:49;2.75;;;2.05;;
55601;SDS011;59921;51.332;12.410;2022-08-24T18:52:15;2.30;;;1.85;;
55601;SDS011;59921;51.332;12.410;2022-08-24T18:54:42;2.85;;;1.80;;